Time;durP1;ratioP1;P1;durP2;ratioP2;P2;SDS_P1;SDS_P2;PMS_P1;PMS_P2;Temp;Humidity;BMP_temperature;BMP_pressure;BME280_temperature;BME280_humidity;BME280_pressure;Samples;Min_cycle;Max_cycle;Signal;HPM_P1;HPM_P2
2023/10/03 00:04:07;;;;;;;29.52;15.95;;;;;20.80;100503.00;;;;10530441;27;20203;-80
2023/10/03 00:09:10;;;;;;;32.30;15.40;;;;;20.80;100503.00;;;;10532696;28;20200;-82
2023/10/03 00:14:12;;;;;;;31.75;14.70;;;;;20.80;100489.00;;;;10541043;27;20292;-83
2023/10/03 00:19:14;;;;;;;29.83;13.70;;;;;20.80;100478.00;;;;10544369;27;20208;-88
2023/10/03 00:24:16;;;;;;;23.98;13.35;;;;;20.80;100477.00;;;;10556646;27;20200;-88
2023/10/03 00:29:23;;;;;;;30.00;13.77;;;;;20.90;100463.00;;;;10562161;28;20691;-84
2023/10/03 00:34:26;;;;;;;27.48;13.10;;;;;20.90;100470.00;;;;10545010;27;20228;-90
2023/10/03 00:39:27;;;;;;;25.02;13.38;;;;;21.00;100467.00;;;;10548058;28;20247;-84
2023/10/03 00:44:30;;;;;;;27.23;12.45;;;;;21.00;100470.00;;;;10552084;27;20203;-88
2023/10/03 00:49:36;;;;;;;24.17;12.80;;;;;21.00;100465.00;;;;10561574;27;20185;-89
2023/10/03 00:54:39;;;;;;;23.88;12.48;;;;;20.90;100463.00;;;;10579732;27;20226;-87
2023/10/03 00:59:41;;;;;;;25.35;12.88;;;;;20.80;100438.00;;;;10547849;28;20196;-86
2023/10/03 01:04:43;;;;;;;25.42;12.70;;;;;20.70;100458.00;;;;10568318;28;20196;-86
2023/10/03 01:09:45;;;;;;;21.58;11.82;;;;;20.60;100453.00;;;;10569707;28;20204;-87
2023/10/03 01:14:47;;;;;;;23.90;12.45;;;;;20.60;100458.00;;;;10551973;27;20196;-89
2023/10/03 01:19:49;;;;;;;22.88;11.63;;;;;20.60;100470.00;;;;10566622;27;20208;-88
2023/10/03 01:24:51;;;;;;;24.02;10.50;;;;;20.60;100454.00;;;;10554451;27;20287;-88
2023/10/03 01:29:53;;;;;;;18.92;10.50;;;;;20.60;100459.00;;;;10572177;28;20915;-87
2023/10/03 01:35:02;;;;;;;21.08;10.10;;;;;20.70;100458.00;;;;10499333;28;20310;-86
2023/10/03 01:40:13;;;;;;;17.88;8.73;;;;;20.90;100459.00;;;;10544375;27;20223;-87
2023/10/03 01:45:17;;;;;;;19.17;9.35;;;;;21.10;100443.00;;;;10525963;28;20937;-87
2023/10/03 01:50:20;;;;;;;17.85;9.18;;;;;21.40;100456.00;;;;10537279;28;20245;-85
2023/10/03 01:55:22;;;;;;;16.30;9.25;;;;;21.50;100443.00;;;;10536713;28;20219;-86
2023/10/03 02:00:27;;;;;;;17.48;9.25;;;;;21.60;100441.00;;;;10512840;28;20211;-89
2023/10/03 02:05:29;;;;;;;22.10;9.80;;;;;21.60;100454.00;;;;10525567;27;20207;-88
2023/10/03 02:10:33;;;;;;;17.42;9.50;;;;;21.60;100459.00;;;;10532242;27;20205;-87
2023/10/03 02:15:36;;;;;;;20.35;9.80;;;;;21.50;100465.00;;;;10530937;27;20281;-88
2023/10/03 02:20:52;;;;;;;18.45;9.70;;;;;21.30;100470.00;;;;10530772;27;20681;-86
2023/10/03 02:26:10;;;;;;;22.33;10.38;;;;;21.20;100493.00;;;;10532040;27;20200;-84
2023/10/03 02:31:15;;;;;;;20.42;10.20;;;;;21.10;100484.00;;;;10521069;27;20222;-87
2023/10/03 02:36:17;;;;;;;19.13;10.60;;;;;21.10;100476.00;;;;10543184;27;20856;-85
2023/10/03 02:41:19;;;;;;;18.15;9.30;;;;;20.90;100483.00;;;;10541069;27;20249;-79
2023/10/03 02:46:21;;;;;;;22.50;9.65;;;;;20.80;100488.00;;;;10514640;27;20619;-81
2023/10/03 02:51:26;;;;;;;19.60;9.18;;;;;20.70;100476.00;;;;10537643;27;20216;-81
2023/10/03 02:56:28;;;;;;;16.08;8.68;;;;;20.50;100489.00;;;;10515193;27;20204;-78
2023/10/03 03:01:33;;;;;;;17.73;9.50;;;;;20.40;100495.00;;;;10540656;27;20231;-80
2023/10/03 03:06:36;;;;;;;19.60;8.60;;;;;20.20;100502.00;;;;10541197;27;20211;-79
2023/10/03 03:11:48;;;;;;;16.75;7.18;;;;;20.10;100510.00;;;;10514778;28;20865;-83
2023/10/03 03:16:50;;;;;;;13.50;7.15;;;;;20.10;100489.00;;;;10534841;28;20747;-81
2023/10/03 03:21:57;;;;;;;14.75;8.15;;;;;20.10;100504.00;;;;10524630;27;20265;-80
2023/10/03 03:26:58;;;;;;;13.98;6.60;;;;;20.00;100514.00;;;;10518818;27;20291;-80
2023/10/03 03:32:04;;;;;;;13.77;7.35;;;;;19.90;100514.00;;;;10556510;27;20212;-78
2023/10/03 03:37:21;;;;;;;11.70;6.30;;;;;19.80;100520.00;;;;10521455;28;20875;-78
2023/10/03 03:42:25;;;;;;;11.27;5.88;;;;;19.80;100519.00;;;;10527384;27;20266;-80
2023/10/03 03:47:27;;;;;;;9.15;5.72;;;;;19.80;100539.00;;;;10540346;27;20204;-78
2023/10/03 03:52:32;;;;;;;13.40;6.40;;;;;19.70;100551.00;;;;10524405;27;20220;-83
2023/10/03 03:57:34;;;;;;;9.07;5.60;;;;;19.70;100546.00;;;;10520832;27;20207;-81
2023/10/03 04:02:38;;;;;;;12.20;5.70;;;;;19.60;100572.00;;;;10529385;27;20711;-81
2023/10/03 04:07:41;;;;;;;9.85;5.25;;;;;19.40;100540.00;;;;10527339;28;20204;-80
2023/10/03 04:12:42;;;;;;;10.98;5.30;;;;;19.30;100557.00;;;;10534930;28;20257;-83
2023/10/03 04:17:54;;;;;;;12.65;5.78;;;;;19.20;100573.00;;;;10516914;28;20280;-84
2023/10/03 04:23:00;;;;;;;14.15;5.95;;;;;19.20;100597.00;;;;10521270;27;20237;-83
2023/10/03 04:28:04;;;;;;;9.23;5.57;;;;;19.10;100573.00;;;;10529880;27;20249;-81
2023/10/03 04:33:07;;;;;;;14.63;6.22;;;;;19.10;100575.00;;;;10511882;28;20258;-81
2023/10/03 04:38:14;;;;;;;12.80;5.43;;;;;19.10;100597.00;;;;10526297;27;20216;-82
2023/10/03 04:43:17;;;;;;;11.38;5.50;;;;;19.00;100611.00;;;;10527319;27;20272;-81
2023/10/03 04:48:18;;;;;;;9.23;5.97;;;;;19.00;100618.00;;;;10531065;28;20204;-83
2023/10/03 04:53:21;;;;;;;12.00;6.45;;;;;19.00;100619.00;;;;10504581;28;20748;-82
2023/10/03 04:58:23;;;;;;;15.45;6.43;;;;;18.90;100603.00;;;;10531101;27;20288;-82
2023/10/03 05:03:25;;;;;;;12.20;6.93;;;;;18.90;100607.00;;;;10529360;27;20236;-79
2023/10/03 05:08:27;;;;;;;12.00;6.13;;;;;18.80;100587.00;;;;10547514;28;20196;-78
2023/10/03 05:13:29;;;;;;;15.63;6.50;;;;;18.70;100602.00;;;;10532627;28;20216;-81
2023/10/03 05:18:31;;;;;;;18.80;7.13;;;;;18.70;100606.00;;;;10504124;27;20722;-78
2023/10/03 05:23:33;;;;;;;12.55;6.55;;;;;18.60;100592.00;;;;10519713;28;20771;-80
2023/10/03 05:28:39;;;;;;;14.80;6.60;;;;;18.60;100603.00;;;;10515326;28;20205;-79
2023/10/03 05:33:42;;;;;;;13.63;6.28;;;;;18.60;100601.00;;;;10512877;28;20312;-79
2023/10/03 05:38:45;;;;;;;13.63;7.53;;;;;18.60;100590.00;;;;10510396;28;20200;-81
2023/10/03 05:43:48;;;;;;;15.82;7.85;;;;;18.50;100600.00;;;;10513890;28;20221;-81
2023/10/03 05:48:51;;;;;;;15.32;6.65;;;;;18.40;100621.00;;;;10521021;28;20243;-80
2023/10/03 05:53:54;;;;;;;13.85;6.63;;;;;18.40;100623.00;;;;10529441;28;20888;-78
2023/10/03 05:58:56;;;;;;;15.82;7.03;;;;;18.50;100614.00;;;;10526914;28;20204;-78
2023/10/03 06:03:58;;;;;;;14.18;7.10;;;;;18.60;100603.00;;;;10541677;28;20207;-80
2023/10/03 06:09:04;;;;;;;16.85;7.65;;;;;18.60;100610.00;;;;10535499;28;20313;-80
2023/10/03 06:14:07;;;;;;;18.33;6.78;;;;;18.60;100619.00;;;;10553846;28;20270;-79
2023/10/03 06:19:10;;;;;;;12.40;7.05;;;;;18.70;100627.00;;;;10542658;28;20228;-79
2023/10/03 06:24:12;;;;;;;11.32;6.95;;;;;18.70;100630.00;;;;10531675;28;20235;-79
2023/10/03 06:29:15;;;;;;;12.52;7.20;;;;;18.80;100631.00;;;;10549115;28;20208;-80
2023/10/03 06:34:18;;;;;;;13.10;6.82;;;;;18.90;100637.00;;;;10529795;28;20228;-79
2023/10/03 06:39:20;;;;;;;10.70;6.65;;;;;19.00;100632.00;;;;10533841;28;20212;-79
2023/10/03 06:44:22;;;;;;;12.57;6.70;;;;;19.10;100638.00;;;;10553331;28;20212;-80
2023/10/03 06:49:24;;;;;;;11.88;6.05;;;;;19.20;100638.00;;;;10525892;28;20204;-79
2023/10/03 06:54:27;;;;;;;14.20;7.32;;;;;19.20;100653.00;;;;10530621;27;20213;-79
2023/10/03 06:59:29;;;;;;;11.20;7.07;;;;;19.20;100656.00;;;;10523937;28;20650;-79
2023/10/03 07:04:31;;;;;;;12.13;6.60;;;;;19.20;100657.00;;;;10535523;27;20205;-79
2023/10/03 07:09:38;;;;;;;10.02;6.32;;;;;19.20;100666.00;;;;10521363;27;20208;-80
2023/10/03 07:14:41;;;;;;;10.57;6.30;;;;;19.10;100676.00;;;;10522845;28;20213;-79
2023/10/03 07:19:48;;;;;;;8.55;5.65;;;;;18.90;100695.00;;;;10522247;27;20204;-79
2023/10/03 07:24:51;;;;;;;9.13;6.10;;;;;18.50;100698.00;;;;10531964;27;20292;-78
2023/10/03 07:29:53;;;;;;;11.68;6.53;;;;;18.30;100701.00;;;;10517109;28;20738;-85
2023/10/03 07:34:57;;;;;;;8.43;6.45;;;;;18.40;100714.00;;;;10530189;27;20230;-87
2023/10/03 07:39:59;;;;;;;11.30;6.10;;;;;18.50;100718.00;;;;10532916;28;20242;-84
2023/10/03 07:45:02;;;;;;;9.50;5.75;;;;;18.40;100730.00;;;;10526464;27;20228;-85
2023/10/03 07:50:05;;;;;;;8.43;5.40;;;;;18.40;100741.00;;;;10533812;27;20866;-84
2023/10/03 07:55:07;;;;;;;8.27;5.45;;;;;18.70;100730.00;;;;10519275;27;20224;-84
2023/10/03 08:00:15;;;;;;;9.93;6.15;;;;;18.80;100763.00;;;;10530052;27;20203;-85
2023/10/03 08:05:17;;;;;;;12.07;5.70;;;;;19.10;100762.00;;;;10525779;27;20357;-83
2023/10/03 08:10:20;;;;;;;4.95;4.45;;;;;19.30;100785.00;;;;10533479;27;20236;-86
2023/10/03 08:15:23;;;;;;;11.95;5.35;;;;;19.20;100779.00;;;;10547574;27;20257;-85
2023/10/03 08:20:27;;;;;;;7.70;4.95;;;;;19.00;100804.00;;;;10536565;28;20197;-86
2023/10/03 08:25:29;;;;;;;5.55;2.83;;;;;18.40;100820.00;;;;10528929;28;20672;-84
2023/10/03 08:30:31;;;;;;;8.20;3.83;;;;;17.40;100834.00;;;;10530813;27;21771;-83
2023/10/03 08:35:37;;;;;;;7.03;2.72;;;;;17.20;100868.00;;;;10539595;28;20212;-84
2023/10/03 08:40:42;;;;;;;5.25;2.72;;;;;17.40;100896.00;;;;10526696;27;20325;-80
2023/10/03 08:45:52;;;;;;;6.95;2.40;;;;;17.60;100900.00;;;;10530495;28;20250;-78
2023/10/03 08:50:58;;;;;;;11.32;2.97;;;;;17.80;100907.00;;;;10534270;27;20204;-78
2023/10/03 08:56:03;;;;;;;8.00;2.58;;;;;18.00;100889.00;;;;10533212;28;20228;-79
2023/10/03 09:01:07;;;;;;;8.32;2.83;;;;;18.10;100908.00;;;;10533983;28;20657;-79
2023/10/03 09:06:09;;;;;;;5.80;1.83;;;;;18.30;100925.00;;;;10511305;27;20204;-77
2023/10/03 09:11:13;;;;;;;6.72;2.33;;;;;18.20;100938.00;;;;10536324;28;20258;-79
2023/10/03 09:16:16;;;;;;;5.18;1.90;;;;;18.20;100955.00;;;;10502974;27;20273;-81
2023/10/03 09:21:24;;;;;;;6.68;1.45;;;;;18.40;100956.00;;;;10527053;28;20203;-79
2023/10/03 09:26:47;;;;;;;3.40;1.52;;;;;18.70;100937.00;;;;10530301;28;20223;-80
2023/10/03 09:31:50;;;;;;;4.63;1.17;;;;;19.10;100956.00;;;;10527759;28;20217;-81
2023/10/03 09:36:52;;;;;;;2.17;1.40;;;;;18.90;100966.00;;;;10508289;28;20227;-81
2023/10/03 09:41:55;;;;;;;3.58;1.60;;;;;18.40;100985.00;;;;10514819;28;20216;-81
2023/10/03 09:47:00;;;;;;;3.95;0.93;;;;;18.00;101003.00;;;;10503328;28;20200;-80
2023/10/03 09:52:17;;;;;;;2.50;1.08;;;;;17.80;101030.00;;;;10555616;28;20254;-82
2023/10/03 09:57:21;;;;;;;1.30;0.70;;;;;17.50;101040.00;;;;10526953;28;20476;-82
2023/10/03 10:02:30;;;;;;;1.65;0.52;;;;;17.20;101060.00;;;;10536640;28;20231;-84
2023/10/03 10:07:58;;;;;;;3.35;0.60;;;;;16.90;101058.00;;;;10534255;28;20203;-83
2023/10/03 10:13:12;;;;;;;1.75;0.45;;;;;16.90;101060.00;;;;10553308;28;20220;-82
2023/10/03 10:18:43;;;;;;;0.80;0.43;;;;;17.10;101069.00;;;;10533640;28;20209;-83
2023/10/03 10:24:15;;;;;;;0.98;0.70;;;;;18.00;101060.00;;;;10563305;28;20211;-82
2023/10/03 10:29:19;;;;;;;2.20;1.15;;;;;19.30;101079.00;;;;10553612;28;20846;-84
2023/10/03 10:34:21;;;;;;;1.63;0.90;;;;;19.10;101099.00;;;;10551242;28;20208;-82
2023/10/03 10:39:56;;;;;;;1.38;0.90;;;;;19.70;101099.00;;;;10553187;28;20228;-82
2023/10/03 10:45:09;;;;;;;2.40;1.50;;;;;19.80;101109.00;;;;10555724;27;20216;-83
2023/10/03 10:50:11;;;;;;;2.13;0.88;;;;;19.40;101100.00;;;;10555207;27;20227;-83
2023/10/03 10:55:24;;;;;;;2.47;1.05;;;;;19.90;101109.00;;;;10571478;27;20571;-84
2023/10/03 11:00:26;;;;;;;3.47;1.00;;;;;21.10;101102.00;;;;10544977;28;20258;-79
2023/10/03 11:05:41;;;;;;;1.73;0.93;;;;;21.20;101099.00;;;;10534345;27;20197;-78
2023/10/03 11:10:52;;;;;;;5.78;1.60;;;;;20.80;101132.00;;;;10522758;27;20926;-75
2023/10/03 11:15:54;;;;;;;2.13;1.10;;;;;20.20;101129.00;;;;10522614;28;20303;-78
2023/10/03 11:20:58;;;;;;;2.63;1.20;;;;;21.10;101133.00;;;;10535374;28;20212;-79
2023/10/03 11:26:03;;;;;;;1.67;1.23;;;;;21.30;101161.00;;;;10525547;28;20241;-80
2023/10/03 11:31:06;;;;;;;2.30;1.55;;;;;20.90;101164.00;;;;10554583;28;20362;-79
2023/10/03 11:36:08;;;;;;;3.65;1.38;;;;;20.60;101178.00;;;;10523811;28;20303;-79
2023/10/03 11:41:10;;;;;;;3.83;1.65;;;;;21.20;101182.00;;;;10521233;27;20222;-78
2023/10/03 11:46:12;;;;;;;2.58;1.27;;;;;22.80;101183.00;;;;10536061;27;20263;-78
2023/10/03 11:51:15;;;;;;;2.30;1.45;;;;;23.70;101178.00;;;;10524970;27;20200;-77
2023/10/03 11:56:17;;;;;;;2.33;1.20;;;;;22.10;101188.00;;;;10516985;27;20919;-76
2023/10/03 12:01:19;;;;;;;4.63;2.03;;;;;20.70;101193.00;;;;10524620;28;20266;-78
2023/10/03 12:06:23;;;;;;;3.83;1.75;;;;;20.00;101201.00;;;;10515795;28;20200;-80
2023/10/03 12:11:26;;;;;;;3.33;1.77;;;;;19.30;101208.00;;;;10532504;28;20280;-79
2023/10/03 12:16:28;;;;;;;2.45;1.45;;;;;18.90;101227.00;;;;10549305;28;20216;-80
2023/10/03 12:21:30;;;;;;;7.57;1.80;;;;;18.90;101231.00;;;;10526615;27;20924;-80
2023/10/03 12:26:33;;;;;;;4.07;2.05;;;;;19.00;101261.00;;;;10543949;27;20200;-81
2023/10/03 12:31:35;;;;;;;5.53;1.75;;;;;18.90;101258.00;;;;10516500;28;20197;-79
2023/10/03 12:36:37;;;;;;;6.35;2.17;;;;;19.50;101292.00;;;;10496735;28;20683;-79
2023/10/03 12:41:39;;;;;;;4.20;1.67;;;;;19.10;101293.00;;;;10532780;27;20238;-80
2023/10/03 12:46:41;;;;;;;6.72;1.88;;;;;19.80;101295.00;;;;10538253;27;20636;-80
2023/10/03 12:51:44;;;;;;;2.97;1.42;;;;;20.40;101299.00;;;;10513933;27;20246;-79
2023/10/03 12:56:46;;;;;;;4.82;1.80;;;;;20.40;101309.00;;;;10497827;27;20231;-79
2023/10/03 13:01:48;;;;;;;3.63;1.75;;;;;20.60;101312.00;;;;10528806;28;20198;-79
2023/10/03 13:06:50;;;;;;;2.85;1.88;;;;;20.40;101313.00;;;;10502425;27;20287;-80
2023/10/03 13:11:52;;;;;;;3.28;1.65;;;;;21.10;101317.00;;;;10524570;28;20208;-80
2023/10/03 13:16:59;;;;;;;6.38;2.60;;;;;20.60;101332.00;;;;10524462;28;20228;-80
2023/10/03 13:22:04;;;;;;;8.60;2.20;;;;;19.20;101355.00;;;;10524843;28;20223;-84
2023/10/03 13:27:06;;;;;;;5.30;2.40;;;;;18.10;101368.00;;;;10532296;28;20229;-83
2023/10/03 13:32:08;;;;;;;6.28;3.20;;;;;18.30;101387.00;;;;10531737;28;20196;-84
2023/10/03 13:37:11;;;;;;;7.53;3.17;;;;;19.90;101400.00;;;;10531581;28;20212;-87
2023/10/03 13:42:14;;;;;;;7.30;3.25;;;;;20.60;101419.00;;;;10533338;28;20200;-83
2023/10/03 13:47:16;;;;;;;6.07;3.20;;;;;18.70;101433.00;;;;10451089;23;20260;-83
2023/10/03 13:52:18;;;;;;;9.40;3.22;;;;;18.00;101428.00;;;;10416478;28;20203;-84
2023/10/03 13:57:20;;;;;;;8.13;3.22;;;;;18.00;101433.00;;;;10424657;28;20230;-85
2023/10/03 14:02:22;;;;;;;8.68;3.17;;;;;18.10;101451.00;;;;10435378;28;20201;-85
2023/10/03 14:07:24;;;;;;;7.50;3.40;;;;;17.90;101447.00;;;;10437296;28;20383;-86
2023/10/03 14:12:27;;;;;;;8.02;3.03;;;;;18.10;101461.00;;;;10436473;28;20209;-83
2023/10/03 14:17:29;;;;;;;6.00;2.83;;;;;17.70;101478.00;;;;10430611;28;20211;-84
2023/10/03 14:22:32;;;;;;;5.82;3.30;;;;;17.50;101487.00;;;;10400409;28;20256;-87
2023/10/03 14:27:34;;;;;;;4.88;2.95;;;;;17.30;101491.00;;;;10417526;28;20237;-87
2023/10/03 14:32:37;;;;;;;4.68;2.58;;;;;17.10;101508.00;;;;10414456;28;20203;-78
2023/10/03 14:37:40;;;;;;;4.47;2.75;;;;;17.20;101525.00;;;;10392987;28;20207;-79
2023/10/03 14:42:45;;;;;;;7.28;2.90;;;;;17.30;101529.00;;;;10440499;28;20214;-79
2023/10/03 14:47:47;;;;;;;6.40;2.40;;;;;17.60;101537.00;;;;10448293;28;20214;-79
2023/10/03 14:52:50;;;;;;;4.47;2.28;;;;;17.50;101546.00;;;;10450901;28;20198;-80
2023/10/03 14:57:54;;;;;;;4.65;2.25;;;;;17.20;101535.00;;;;10410222;28;20656;-78
2023/10/03 15:02:56;;;;;;;5.03;2.50;;;;;17.20;101532.00;;;;10434217;28;20210;-80
2023/10/03 15:08:00;;;;;;;4.30;2.28;;;;;17.30;101550.00;;;;10432037;28;20601;-80
2023/10/03 15:13:04;;;;;;;4.50;2.30;;;;;17.40;101555.00;;;;10423616;28;20904;-78
2023/10/03 15:18:06;;;;;;;3.97;2.20;;;;;17.40;101560.00;;;;10437624;28;20209;-81
2023/10/03 15:23:08;;;;;;;4.63;2.40;;;;;17.60;101566.00;;;;10448400;28;20198;-81
2023/10/03 15:28:13;;;;;;;4.55;2.17;;;;;17.70;101582.00;;;;10418877;28;20568;-81
2023/10/03 15:33:16;;;;;;;4.60;2.10;;;;;17.40;101584.00;;;;10430208;28;21287;-79
2023/10/03 15:38:19;;;;;;;4.93;1.60;;;;;17.30;101581.00;;;;10426757;28;20214;-81
2023/10/03 15:43:21;;;;;;;5.57;2.40;;;;;17.20;101590.00;;;;10447325;28;20206;-85
2023/10/03 15:48:23;;;;;;;4.70;2.03;;;;;17.10;101601.00;;;;10439993;28;20206;-84
2023/10/03 15:53:28;;;;;;;4.00;2.10;;;;;17.10;101612.00;;;;10453053;28;20220;-86
2023/10/03 15:58:32;;;;;;;3.42;2.33;;;;;17.00;101614.00;;;;10438205;28;20201;-82
2023/10/03 16:03:34;;;;;;;5.63;2.40;;;;;16.90;101637.00;;;;10619761;22;20230;-87
2023/10/03 16:08:37;;;;;;;3.08;1.92;;;;;16.90;101645.00;;;;10834050;22;20231;-86
2023/10/03 16:13:46;;;;;;;2.83;1.83;;;;;16.80;101674.00;;;;10734315;22;20225;-84
2023/10/03 16:24:47;;;;;;;3.28;2.15;;;;;16.60;101689.00;;;;10445906;28;20233;-85
2023/10/03 16:29:49;;;;;;;5.18;1.92;;;;;16.50;101696.00;;;;10430633;28;20221;-81
2023/10/03 16:34:52;;;;;;;5.03;2.65;;;;;16.40;101698.00;;;;10460185;28;20226;-85
2023/10/03 16:39:54;;;;;;;6.43;2.47;;;;;16.30;101702.00;;;;10445410;28;20268;-83
2023/10/03 16:44:56;;;;;;;8.07;2.60;;;;;16.20;101711.00;;;;10486400;28;20244;-84
2023/10/03 16:49:58;;;;;;;6.47;2.97;;;;;16.20;101723.00;;;;10461737;28;20229;-77
2023/10/03 16:55:01;;;;;;;3.58;2.17;;;;;16.00;101713.00;;;;10479474;28;20217;-79
2023/10/03 17:00:06;;;;;;;5.38;2.70;;;;;15.90;101729.00;;;;10445956;28;20757;-80
2023/10/03 17:05:13;;;;;;;5.22;2.50;;;;;15.70;101740.00;;;;10452128;28;20205;-81
2023/10/03 17:10:17;;;;;;;5.85;2.83;;;;;15.50;101742.00;;;;10469333;28;20209;-79
2023/10/03 17:15:21;;;;;;;5.43;2.72;;;;;15.40;101749.00;;;;10458893;28;20264;-79
2023/10/03 17:20:23;;;;;;;4.97;2.83;;;;;15.40;101761.00;;;;10468149;28;20225;-79
2023/10/03 17:25:25;;;;;;;6.18;2.60;;;;;15.30;101769.00;;;;10465871;28;20213;-79
2023/10/03 17:30:27;;;;;;;5.95;2.47;;;;;15.30;101776.00;;;;10456533;28;20223;-78
2023/10/03 17:35:38;;;;;;;5.43;2.35;;;;;15.30;101786.00;;;;10475421;28;20221;-80
2023/10/03 17:40:40;;;;;;;4.70;2.33;;;;;15.30;101786.00;;;;10461218;28;20758;-78
2023/10/03 17:45:42;;;;;;;3.70;2.20;;;;;15.20;101804.00;;;;10462619;28;20197;-78
2023/10/03 17:50:49;;;;;;;4.30;2.42;;;;;15.10;101812.00;;;;10447338;28;20209;-78
2023/10/03 17:55:53;;;;;;;9.10;2.90;;;;;15.10;101818.00;;;;10451423;28;20309;-79
2023/10/03 18:00:54;;;;;;;4.95;2.55;;;;;15.00;101819.00;;;;10456948;28;20217;-82
2023/10/03 18:05:57;;;;;;;5.57;2.60;;;;;14.80;101826.00;;;;10488002;28;20221;-78
2023/10/03 18:11:01;;;;;;;4.20;2.78;;;;;14.80;101836.00;;;;10450818;28;20209;-77
2023/10/03 18:16:04;;;;;;;3.58;2.08;;;;;14.80;101837.00;;;;10465169;28;20258;-79
2023/10/03 18:21:10;;;;;;;3.17;2.50;;;;;14.80;101849.00;;;;10461484;28;20782;-78
2023/10/03 18:26:12;;;;;;;5.63;2.55;;;;;14.70;101846.00;;;;10451662;28;20217;-77
2023/10/03 18:31:16;;;;;;;6.88;2.83;;;;;14.80;101854.00;;;;10480074;28;20213;-77
2023/10/03 18:36:18;;;;;;;4.63;2.20;;;;;14.90;101855.00;;;;10458205;28;20901;-77
2023/10/03 18:41:20;;;;;;;4.70;2.35;;;;;15.00;101872.00;;;;10477851;28;20239;-76
2023/10/03 18:46:23;;;;;;;4.47;2.35;;;;;14.90;101888.00;;;;10475246;28;20779;-78
2023/10/03 18:51:25;;;;;;;5.70;2.38;;;;;14.90;101909.00;;;;10469806;28;20688;-76
2023/10/03 18:56:27;;;;;;;5.85;2.40;;;;;14.90;101912.00;;;;10456341;28;20266;-79
2023/10/03 19:01:31;;;;;;;5.43;2.10;;;;;14.90;101919.00;;;;10487550;28;20251;-77
2023/10/03 19:06:38;;;;;;;4.03;2.33;;;;;14.80;101915.00;;;;10471586;28;20214;-77
2023/10/03 19:11:45;;;;;;;5.25;2.05;;;;;14.80;101923.00;;;;10456322;28;20209;-78
2023/10/03 19:16:47;;;;;;;6.72;3.00;;;;;14.80;101915.00;;;;10455954;28;20229;-78
2023/10/03 19:21:49;;;;;;;3.53;2.10;;;;;14.70;101920.00;;;;10486430;28;20312;-79
2023/10/03 19:26:51;;;;;;;5.15;1.80;;;;;14.60;101934.00;;;;10481710;28;20765;-78
2023/10/03 19:31:55;;;;;;;5.13;1.70;;;;;14.60;101934.00;;;;10483495;28;20732;-78
2023/10/03 19:36:57;;;;;;;8.10;2.28;;;;;14.50;101934.00;;;;10453121;28;20217;-79
2023/10/03 19:42:03;;;;;;;6.22;2.58;;;;;14.40;101948.00;;;;10458921;28;20194;-77
2023/10/03 19:47:05;;;;;;;7.40;2.13;;;;;14.50;101958.00;;;;10486282;28;20225;-81
2023/10/03 19:52:07;;;;;;;7.30;2.10;;;;;14.50;101951.00;;;;10490687;28;20201;-77
2023/10/03 19:57:09;;;;;;;5.18;2.20;;;;;14.50;101961.00;;;;10464432;28;20225;-78
2023/10/03 20:02:13;;;;;;;6.78;2.17;;;;;14.40;101967.00;;;;10449865;28;20285;-79
2023/10/03 20:07:17;;;;;;;5.80;2.10;;;;;14.30;101981.00;;;;10470928;28;20189;-78
2023/10/03 20:12:19;;;;;;;5.47;1.98;;;;;14.10;101977.00;;;;10488838;28;20229;-79
2023/10/03 20:17:21;;;;;;;11.30;3.05;;;;;14.00;101980.00;;;;10429661;28;20229;-78
2023/10/03 20:22:23;;;;;;;4.85;2.00;;;;;14.00;101980.00;;;;10480885;28;20206;-77
2023/10/03 20:27:25;;;;;;;6.25;2.15;;;;;14.10;102001.00;;;;10471971;28;20243;-79
2023/10/03 20:32:28;;;;;;;7.85;2.22;;;;;14.00;102004.00;;;;10465593;28;20968;-78
2023/10/03 20:37:30;;;;;;;10.20;2.83;;;;;13.90;102008.00;;;;10470073;28;20591;-79
2023/10/03 20:42:32;;;;;;;9.27;2.20;;;;;13.90;102011.00;;;;10453693;28;20287;-77
2023/10/03 20:47:34;;;;;;;5.17;1.90;;;;;13.90;102011.00;;;;10470922;28;20213;-77
2023/10/03 20:52:36;;;;;;;11.45;2.63;;;;;13.90;102017.00;;;;10464165;28;20289;-77
2023/10/03 20:57:39;;;;;;;9.10;2.35;;;;;13.80;102021.00;;;;10435738;28;20312;-77
2023/10/03 21:02:41;;;;;;;5.90;2.20;;;;;13.80;102023.00;;;;10458761;28;20197;-77
2023/10/03 21:07:45;;;;;;;11.93;2.70;;;;;13.70;102045.00;;;;10448987;28;20813;-78
2023/10/03 21:12:49;;;;;;;6.77;2.00;;;;;13.60;102034.00;;;;10468113;28;20596;-78
2023/10/03 21:17:51;;;;;;;13.23;2.57;;;;;13.50;102039.00;;;;10451280;28;20217;-78
2023/10/03 21:22:54;;;;;;;9.40;2.63;;;;;13.50;102039.00;;;;10460939;28;20255;-77
2023/10/03 21:27:56;;;;;;;9.53;2.60;;;;;13.50;102043.00;;;;10466292;28;20910;-80
2023/10/03 21:32:58;;;;;;;8.33;2.07;;;;;13.40;102047.00;;;;10448186;28;20208;-79
2023/10/03 21:38:03;;;;;;;9.30;2.47;;;;;13.40;102043.00;;;;10467027;28;20308;-78
2023/10/03 21:43:05;;;;;;;9.13;2.30;;;;;13.40;102046.00;;;;10467682;28;20209;-79
2023/10/03 21:48:10;;;;;;;10.10;2.87;;;;;13.40;102050.00;;;;10461761;28;20288;-77
2023/10/03 21:53:12;;;;;;;9.10;2.80;;;;;13.30;102048.00;;;;10482279;28;20205;-80
2023/10/03 21:58:14;;;;;;;7.77;2.30;;;;;13.40;102059.00;;;;10440671;28;20217;-78
2023/10/03 22:03:16;;;;;;;9.17;2.80;;;;;13.30;102042.00;;;;10449724;28;20278;-78
2023/10/03 22:08:19;;;;;;;9.40;2.03;;;;;13.30;102044.00;;;;10469930;28;20205;-78
2023/10/03 22:13:24;;;;;;;7.60;2.57;;;;;13.40;102037.00;;;;10450980;28;20201;-78
2023/10/03 22:18:26;;;;;;;7.37;2.03;;;;;13.30;102035.00;;;;10434540;28;20221;-77
2023/10/03 22:23:28;;;;;;;7.80;2.20;;;;;13.20;102031.00;;;;10480354;28;20240;-77
2023/10/03 22:28:30;;;;;;;7.63;2.00;;;;;13.20;102041.00;;;;10463696;28;21134;-78
2023/10/03 22:33:32;;;;;;;8.97;2.80;;;;;13.10;102042.00;;;;10460398;28;20243;-78
2023/10/03 22:38:34;;;;;;;8.17;2.10;;;;;13.10;102045.00;;;;10458589;28;20225;-78
2023/10/03 22:43:35;;;;;;;11.93;2.63;;;;;13.00;102044.00;;;;10444829;28;20229;-77
2023/10/03 22:48:40;;;;;;;11.67;2.40;;;;;13.00;102052.00;;;;10470225;28;20861;-77
2023/10/03 22:53:42;;;;;;;10.03;2.20;;;;;12.90;102052.00;;;;10451896;28;20220;-78
2023/10/03 22:58:44;;;;;;;8.43;2.00;;;;;12.90;102058.00;;;;10476820;28;20214;-77
2023/10/03 23:03:46;;;;;;;10.77;2.87;;;;;12.80;102062.00;;;;10458080;28;20578;-78
2023/10/03 23:08:48;;;;;;;6.57;1.73;;;;;12.80;102059.00;;;;10469550;28;20744;-77
2023/10/03 23:13:51;;;;;;;11.43;3.43;;;;;12.80;102056.00;;;;10485483;28;20197;-77
2023/10/03 23:18:53;;;;;;;8.80;2.03;;;;;12.70;102071.00;;;;10444565;28;20249;-78
2023/10/03 23:23:59;;;;;;;11.10;2.87;;;;;12.70;102069.00;;;;10470304;28;20292;-77
2023/10/03 23:29:03;;;;;;;8.80;2.50;;;;;12.70;102088.00;;;;10475321;28;20193;-77
2023/10/03 23:34:06;;;;;;;6.27;2.40;;;;;12.70;102086.00;;;;10459206;28;20202;-79
2023/10/03 23:39:09;;;;;;;9.83;2.27;;;;;12.70;102081.00;;;;10475128;28;21256;-77
2023/10/03 23:44:11;;;;;;;9.60;2.37;;;;;12.70;102084.00;;;;10472826;28;20205;-76
2023/10/03 23:49:14;;;;;;;10.10;2.20;;;;;12.70;102093.00;;;;10459822;28;20749;-79
2023/10/03 23:54:16;;;;;;;10.63;2.50;;;;;12.70;102093.00;;;;10456211;28;20810;-77
2023/10/03 23:59:20;;;;;;;8.40;2.53;;;;;12.60;102089.00;;;;10474073;28;20312;-79
